createdAt,value
2018-01-04T00:02:24.714Z,2.44
2018-01-04T00:04:52.394Z,2.38
2018-01-04T00:07:20.215Z,2.37
2018-01-04T00:09:48.043Z,2.34
2018-01-04T00:12:15.725Z,2.25
2018-01-04T00:14:43.492Z,2.19
2018-01-04T00:17:11.156Z,2.19
2018-01-04T00:19:38.900Z,2.24
2018-01-04T00:22:06.651Z,2.22
2018-01-04T00:24:34.316Z,2.31
2018-01-04T00:27:02.060Z,2.30
2018-01-04T00:29:29.725Z,2.39
2018-01-04T00:31:58.052Z,2.42
2018-01-04T00:34:25.730Z,2.44
2018-01-04T00:36:53.487Z,2.40
2018-01-04T00:39:21.189Z,2.41
2018-01-04T00:41:48.911Z,2.36
2018-01-04T00:44:16.614Z,2.35
2018-01-04T00:46:44.362Z,2.38
2018-01-04T00:49:12.165Z,2.35
2018-01-04T00:51:39.905Z,2.39
2018-01-04T00:54:07.607Z,2.37
2018-01-04T00:56:35.269Z,2.28
2018-01-04T00:59:03.024Z,2.21
2018-01-04T01:01:30.707Z,2.20
2018-01-04T01:03:58.383Z,2.30
2018-01-04T01:06:26.150Z,2.24
2018-01-04T01:08:53.894Z,2.26
2018-01-04T01:11:21.573Z,2.23
2018-01-04T01:13:49.312Z,2.22
2018-01-04T01:16:17.059Z,2.22
2018-01-04T01:18:44.943Z,2.24
2018-01-04T01:21:12.693Z,2.19
2018-01-04T01:23:40.400Z,2.19
2018-01-04T01:26:08.132Z,2.15
2018-01-04T01:28:35.810Z,2.15
2018-01-04T01:31:03.599Z,2.10
2018-01-04T01:33:31.333Z,2.11
2018-01-04T01:35:59.004Z,2.14
2018-01-04T01:38:26.718Z,2.26
2018-01-04T01:40:54.453Z,2.36
2018-01-04T01:43:22.188Z,2.49
2018-01-04T01:45:50.043Z,2.37
2018-01-04T01:48:17.720Z,2.30
2018-01-04T01:50:45.488Z,2.14
2018-01-04T01:53:13.276Z,2.13
2018-01-04T01:55:41.052Z,2.09
2018-01-04T01:58:08.758Z,2.08
2018-01-04T02:00:36.456Z,2.09
2018-01-04T02:03:04.214Z,2.08
2018-01-04T02:05:31.960Z,2.11
2018-01-04T02:07:59.633Z,2.18
2018-01-04T02:10:27.411Z,2.13
2018-01-04T02:12:55.102Z,2.20
2018-01-04T02:15:22.803Z,2.14
2018-01-04T02:17:50.644Z,2.12
2018-01-04T02:20:30.266Z,2.05
2018-01-04T02:23:09.728Z,2.03
2018-01-04T02:25:46.259Z,2.00
2018-01-04T02:28:25.666Z,2.01
2018-01-04T02:31:05.180Z,2.03
2018-01-04T02:33:44.490Z,2.09
2018-01-04T02:36:23.858Z,2.11
2018-01-04T02:42:04.130Z,2.17
2018-01-04T02:44:39.830Z,2.11
2018-01-04T02:47:07.583Z,2.08
2018-01-04T02:49:35.271Z,2.05
2018-01-04T02:52:03.004Z,2.01
2018-01-04T02:54:30.711Z,2.02
2018-01-04T02:56:58.493Z,2.07
2018-01-04T02:59:26.252Z,2.18
2018-01-04T03:01:53.978Z,2.20
2018-01-04T03:04:21.712Z,2.09
2018-01-04T03:06:49.427Z,2.05
2018-01-04T03:09:17.136Z,2.03
2018-01-04T03:11:44.816Z,2.01
2018-01-04T03:14:12.540Z,1.93
2018-01-04T03:16:40.202Z,1.94
2018-01-04T03:19:07.926Z,1.94
2018-01-04T03:21:35.663Z,1.94
2018-01-04T03:24:03.413Z,1.94
2018-01-04T03:26:36.560Z,1.93
2018-01-04T03:29:09.865Z,1.99
2018-01-04T03:31:43.116Z,1.93
2018-01-04T03:34:16.421Z,1.87
2018-01-04T03:36:49.742Z,1.88
2018-01-04T03:39:23.431Z,1.89
2018-01-04T03:41:57.565Z,1.84
2018-01-04T03:47:34.856Z,1.90
2018-01-04T03:50:08.099Z,1.91
2018-01-04T03:52:35.790Z,1.86
2018-01-04T03:55:09.178Z,1.82
2018-01-04T03:57:42.508Z,1.87
2018-01-04T04:00:15.605Z,1.85
2018-01-04T04:02:48.820Z,1.83
2018-01-04T04:05:22.157Z,1.83
2018-01-04T04:07:49.941Z,1.86
2018-01-04T04:10:17.643Z,1.92
2018-01-04T04:12:45.356Z,1.93
2018-01-04T04:15:13.161Z,1.92
2018-01-04T04:17:40.829Z,1.93
2018-01-04T04:20:08.498Z,2.27
2018-01-04T04:22:36.243Z,2.03
2018-01-04T04:25:03.952Z,1.91
2018-01-04T04:27:31.626Z,1.90
2018-01-04T04:29:59.415Z,1.87
2018-01-04T04:32:27.120Z,1.86
2018-01-04T04:34:54.855Z,1.96
2018-01-04T04:37:22.522Z,1.88
2018-01-04T04:39:50.252Z,1.87
2018-01-04T04:42:17.968Z,1.81
2018-01-04T04:44:45.625Z,1.84
2018-01-04T04:47:13.658Z,1.84
2018-01-04T04:49:42.135Z,1.81
2018-01-04T04:52:09.801Z,1.86
2018-01-04T04:54:37.541Z,1.91
2018-01-04T04:57:05.247Z,1.87
2018-01-04T04:59:32.956Z,1.88
2018-01-04T05:02:00.761Z,1.88
2018-01-04T05:04:28.465Z,1.88
2018-01-04T05:06:56.203Z,1.86
2018-01-04T05:09:23.927Z,1.85
2018-01-04T05:11:51.626Z,1.89
2018-01-04T05:14:19.289Z,1.88
2018-01-04T05:16:47.034Z,1.91
2018-01-04T05:19:14.705Z,1.91
2018-01-04T05:21:42.449Z,1.90
2018-01-04T05:24:10.147Z,1.87
2018-01-04T05:26:37.863Z,1.88
2018-01-04T05:29:05.563Z,2.01
2018-01-04T05:31:33.294Z,1.93
2018-01-04T05:34:00.977Z,1.90
2018-01-04T05:36:28.698Z,1.88
2018-01-04T05:38:56.518Z,1.93
2018-01-04T05:41:24.247Z,1.93
2018-01-04T05:43:51.953Z,1.87
2018-01-04T05:46:20.098Z,1.83
2018-01-04T05:48:47.800Z,1.84
2018-01-04T05:51:15.529Z,1.85
2018-01-04T05:53:43.204Z,1.84
2018-01-04T05:56:10.919Z,1.90
2018-01-04T05:58:38.630Z,1.82
2018-01-04T06:01:06.395Z,1.90
2018-01-04T06:03:34.127Z,1.98
2018-01-04T06:06:01.795Z,2.00
2018-01-04T06:08:29.536Z,2.06
2018-01-04T06:10:57.282Z,2.13
2018-01-04T06:13:24.991Z,2.16
2018-01-04T06:15:52.703Z,2.14
2018-01-04T06:18:20.428Z,2.13
2018-01-04T06:20:48.108Z,1.99
2018-01-04T06:23:15.785Z,1.95
2018-01-04T06:25:43.531Z,2.01
2018-01-04T06:28:11.223Z,2.07
2018-01-04T06:30:39.032Z,2.04
2018-01-04T06:33:06.731Z,2.15
2018-01-04T06:35:35.511Z,2.07
2018-01-04T06:38:03.342Z,2.00
2018-01-04T06:40:30.999Z,2.01
2018-01-04T06:42:59.814Z,1.89
2018-01-04T06:45:27.562Z,1.87
2018-01-04T06:47:55.264Z,1.79
2018-01-04T06:50:22.986Z,1.74
2018-01-04T06:52:50.690Z,1.97
2018-01-04T06:55:18.389Z,1.97
2018-01-04T06:57:46.177Z,1.90
2018-01-04T07:00:13.929Z,1.95
2018-01-04T07:02:41.797Z,1.90
2018-01-04T07:05:09.460Z,1.90
2018-01-04T07:07:37.177Z,1.93
2018-01-04T07:10:04.870Z,1.91
2018-01-04T07:12:32.643Z,1.90
2018-01-04T07:15:00.349Z,1.94
2018-01-04T07:17:28.095Z,1.96
2018-01-04T07:19:55.799Z,1.84
2018-01-04T07:22:23.548Z,1.88
2018-01-04T07:24:51.309Z,1.95
2018-01-04T07:27:19.027Z,2.01
2018-01-04T07:29:46.719Z,2.07
2018-01-04T07:32:14.473Z,2.03
2018-01-04T07:34:42.229Z,2.06
2018-01-04T07:37:10.004Z,1.91
2018-01-04T07:39:37.716Z,1.90
2018-01-04T07:42:05.650Z,1.88
2018-01-04T07:44:33.388Z,1.83
2018-01-04T07:47:01.114Z,1.90
2018-01-04T07:49:28.876Z,1.93
2018-01-04T07:51:56.579Z,1.98
2018-01-04T07:54:24.340Z,2.00
2018-01-04T07:56:52.050Z,1.99
2018-01-04T07:59:19.784Z,2.01
2018-01-04T08:01:47.638Z,2.02
2018-01-04T08:04:15.347Z,2.03
2018-01-04T08:06:43.149Z,2.08
2018-01-04T08:09:10.876Z,2.15
2018-01-04T08:11:38.598Z,2.16
2018-01-04T08:14:06.363Z,2.15
2018-01-04T08:16:34.122Z,2.21
2018-01-04T08:19:01.859Z,2.18
2018-01-04T08:21:29.587Z,2.14
2018-01-04T08:23:57.366Z,2.14
2018-01-04T08:26:25.149Z,2.17
2018-01-04T08:28:52.876Z,2.15
2018-01-04T08:31:20.677Z,2.17
2018-01-04T08:33:48.584Z,2.17
2018-01-04T08:36:18.051Z,2.19
2018-01-04T08:38:45.859Z,2.25
2018-01-04T08:41:13.624Z,2.25
2018-01-04T08:43:41.490Z,2.29
2018-01-04T08:46:09.260Z,2.33
2018-01-04T08:48:37.061Z,2.34
2018-01-04T08:51:04.825Z,2.34
2018-01-04T08:53:32.558Z,2.36
2018-01-04T08:56:01.508Z,2.32
2018-01-04T08:58:29.456Z,2.37
2018-01-04T09:00:57.348Z,2.36
2018-01-04T09:03:25.046Z,2.34
2018-01-04T09:05:52.792Z,2.37
2018-01-04T09:08:20.596Z,2.33
2018-01-04T09:10:48.312Z,2.37
2018-01-04T09:13:16.126Z,2.38
2018-01-04T09:15:43.919Z,2.36
2018-01-04T09:18:11.645Z,2.38
2018-01-04T09:20:39.336Z,2.36
2018-01-04T09:23:07.095Z,2.42
2018-01-04T09:25:34.860Z,2.47
2018-01-04T09:28:02.836Z,2.47
2018-01-04T09:30:30.582Z,2.49
2018-01-04T09:32:58.364Z,2.37
2018-01-04T09:35:26.117Z,2.11
2018-01-04T09:37:53.853Z,2.23
2018-01-04T09:40:21.689Z,2.04
2018-01-04T09:42:49.495Z,2.15
2018-01-04T09:45:17.326Z,2.11
2018-01-04T09:47:45.164Z,1.94
2018-01-04T09:50:13.115Z,1.95
2018-01-04T09:52:40.840Z,1.90
2018-01-04T09:55:08.584Z,1.94
2018-01-04T09:57:36.295Z,2.09
2018-01-04T10:00:04.126Z,2.14
2018-01-04T10:02:31.867Z,2.13
2018-01-04T10:05:00.313Z,2.36
2018-01-04T10:07:28.055Z,2.40
2018-01-04T10:09:55.786Z,2.41
2018-01-04T10:12:23.543Z,2.50
2018-01-04T10:14:51.230Z,2.55
2018-01-04T10:17:19.048Z,2.59
2018-01-04T10:19:46.757Z,2.64
2018-01-04T10:22:14.499Z,2.67
2018-01-04T10:24:42.282Z,2.68
2018-01-04T10:27:10.086Z,2.68
2018-01-04T10:29:37.809Z,2.73
2018-01-04T10:32:05.573Z,2.84
2018-01-04T10:34:33.319Z,2.90
2018-01-04T10:37:01.155Z,2.94
2018-01-04T10:39:28.947Z,2.81
2018-01-04T10:41:57.071Z,2.75
2018-01-04T10:44:24.971Z,2.73
2018-01-04T10:46:52.781Z,2.80
2018-01-04T10:49:20.496Z,2.53
2018-01-04T10:51:48.397Z,2.56
2018-01-04T10:54:16.189Z,2.56
2018-01-04T10:56:43.911Z,2.70
2018-01-04T10:59:12.882Z,2.59
2018-01-04T11:01:40.783Z,2.53
2018-01-04T11:04:08.523Z,2.47
2018-01-04T11:06:36.362Z,2.44
2018-01-04T11:09:04.181Z,2.45
2018-01-04T11:11:31.935Z,2.61
2018-01-04T11:13:59.671Z,2.66
2018-01-04T11:16:27.532Z,2.74
2018-01-04T11:18:55.304Z,2.73
2018-01-04T11:21:23.069Z,2.81
2018-01-04T11:23:50.801Z,2.70
2018-01-04T11:26:18.576Z,2.74
2018-01-04T11:28:46.287Z,2.78
2018-01-04T11:31:13.989Z,2.77
2018-01-04T11:33:41.918Z,2.91
2018-01-04T11:36:09.623Z,2.99
2018-01-04T11:38:38.634Z,3.03
2018-01-04T11:41:06.431Z,3.02
2018-01-04T11:43:34.181Z,2.97
2018-01-04T11:46:01.936Z,2.95
2018-01-04T11:48:29.686Z,3.03
2018-01-04T11:50:57.436Z,3.04
2018-01-04T11:53:25.214Z,2.99
2018-01-04T11:55:52.903Z,3.08
2018-01-04T11:58:20.643Z,3.01
2018-01-04T12:00:48.363Z,3.10
2018-01-04T12:03:16.140Z,3.19
2018-01-04T12:05:43.859Z,3.09
2018-01-04T12:08:11.644Z,3.13
2018-01-04T12:10:39.407Z,3.14
2018-01-04T12:13:07.154Z,3.08
2018-01-04T12:15:34.872Z,3.10
2018-01-04T12:18:02.572Z,3.05
2018-01-04T12:20:30.313Z,3.02
2018-01-04T12:22:58.064Z,3.12
2018-01-04T12:25:25.796Z,3.22
2018-01-04T12:27:53.494Z,3.09
2018-01-04T12:30:21.402Z,2.92
2018-01-04T12:32:49.133Z,2.89
2018-01-04T12:35:16.904Z,2.89
2018-01-04T12:37:44.607Z,2.92
2018-01-04T12:40:12.364Z,2.94
2018-01-04T12:42:40.062Z,3.01
2018-01-04T12:45:07.825Z,2.95
2018-01-04T12:47:35.566Z,2.70
2018-01-04T12:50:03.341Z,2.69
2018-01-04T12:52:31.111Z,2.79
2018-01-04T12:54:58.890Z,2.81
2018-01-04T12:57:26.704Z,2.69
2018-01-04T12:59:54.565Z,2.70
2018-01-04T13:02:22.344Z,2.70
2018-01-04T13:04:50.042Z,2.48
2018-01-04T13:07:17.840Z,2.32
2018-01-04T13:09:45.595Z,2.36
2018-01-04T13:12:13.481Z,2.26
2018-01-04T13:14:41.168Z,2.36
2018-01-04T13:17:08.934Z,2.48
2018-01-04T13:19:36.658Z,2.51
2018-01-04T13:22:04.422Z,2.47
2018-01-04T13:24:32.596Z,2.50
2018-01-04T13:27:00.344Z,2.49
2018-01-04T13:29:28.109Z,2.50
2018-01-04T13:31:55.792Z,2.48
2018-01-04T13:34:23.547Z,2.30
2018-01-04T13:36:51.242Z,2.35
2018-01-04T13:39:19.689Z,2.30
2018-01-04T13:41:48.655Z,2.33
2018-01-04T13:44:16.397Z,2.45
2018-01-04T13:46:44.143Z,2.62
2018-01-04T13:49:11.848Z,2.60
2018-01-04T13:51:39.560Z,2.56
2018-01-04T13:54:07.304Z,2.61
2018-01-04T13:56:34.994Z,2.56
2018-01-04T13:59:02.776Z,2.55
2018-01-04T14:01:30.466Z,2.51
2018-01-04T14:03:58.227Z,2.51
2018-01-04T14:06:26.009Z,2.50
2018-01-04T14:08:53.801Z,2.42
2018-01-04T14:11:21.495Z,2.38
2018-01-04T14:13:49.204Z,2.42
2018-01-04T14:16:16.991Z,2.43
2018-01-04T14:18:44.702Z,2.28
2018-01-04T14:21:12.477Z,2.35
2018-01-04T14:23:40.294Z,2.17
2018-01-04T14:26:08.062Z,2.22
2018-01-04T14:28:35.815Z,2.35
2018-01-04T14:31:03.579Z,2.32
2018-01-04T14:33:31.309Z,2.30
2018-01-04T14:35:59.057Z,2.30
2018-01-04T14:38:26.776Z,2.31
2018-01-04T14:40:54.484Z,2.17
2018-01-04T14:43:22.305Z,2.27
2018-01-04T14:45:50.140Z,2.21
2018-01-04T14:48:17.939Z,2.18
2018-01-04T14:50:45.678Z,2.24
2018-01-04T14:53:13.544Z,2.19
2018-01-04T14:55:41.402Z,2.22
2018-01-04T14:58:09.226Z,2.09
2018-01-04T15:00:37.516Z,2.08
2018-01-04T15:03:05.248Z,2.16
2018-01-04T15:05:33.207Z,2.09
2018-01-04T15:08:00.925Z,2.11
2018-01-04T15:10:29.939Z,2.07
2018-01-04T15:12:58.789Z,2.02
2018-01-04T15:15:26.571Z,2.03
2018-01-04T15:17:54.354Z,2.08
2018-01-04T15:20:22.379Z,2.01
2018-01-04T15:22:51.321Z,2.02
2018-01-04T15:25:19.276Z,2.09
2018-01-04T15:27:47.125Z,2.07
2018-01-04T15:30:14.900Z,2.06
2018-01-04T15:32:42.973Z,2.09
2018-01-04T15:35:10.832Z,2.08
2018-01-04T15:37:38.824Z,2.07
2018-01-04T15:40:07.349Z,2.06
2018-01-04T15:42:35.364Z,2.10
2018-01-04T15:45:03.325Z,2.11
2018-01-04T15:47:31.138Z,2.08
2018-01-04T15:49:59.990Z,2.10
2018-01-04T15:52:29.617Z,2.11
2018-01-04T15:54:57.536Z,2.06
2018-01-04T15:57:25.452Z,2.12
2018-01-04T15:59:53.240Z,2.06
2018-01-04T16:02:21.203Z,2.04
2018-01-04T16:04:49.003Z,2.03
2018-01-04T16:07:16.988Z,2.04
2018-01-04T16:09:44.817Z,2.00
2018-01-04T16:12:12.591Z,1.82
2018-01-04T16:14:40.449Z,1.91
2018-01-04T16:17:08.210Z,1.97
2018-01-04T16:19:35.992Z,1.96
2018-01-04T16:22:03.751Z,1.93
2018-01-04T16:24:31.491Z,1.95
2018-01-04T16:26:59.307Z,1.79
2018-01-04T16:29:27.161Z,1.80
2018-01-04T16:31:54.960Z,1.77
2018-01-04T16:34:22.745Z,1.83
2018-01-04T16:36:50.507Z,1.69
2018-01-04T16:39:18.291Z,1.84
2018-01-04T16:41:46.106Z,1.89
2018-01-04T16:44:14.424Z,1.87
2018-01-04T16:46:42.148Z,1.89
2018-01-04T16:49:09.908Z,1.89
2018-01-04T16:51:38.362Z,1.89
2018-01-04T16:54:06.112Z,1.87
2018-01-04T16:56:34.535Z,1.78
2018-01-04T16:59:02.378Z,1.72
2018-01-04T17:01:30.222Z,1.80
2018-01-04T17:03:58.135Z,1.79
2018-01-04T17:06:25.952Z,1.82
2018-01-04T17:08:54.497Z,1.79
2018-01-04T17:11:22.660Z,1.88
2018-01-04T17:13:51.676Z,1.96
2018-01-04T17:16:19.428Z,1.98
2018-01-04T17:18:47.218Z,1.96
2018-01-04T17:21:15.116Z,1.91
2018-01-04T17:23:43.058Z,1.89
2018-01-04T17:26:10.812Z,1.84
2018-01-04T17:28:38.562Z,1.80
2018-01-04T17:31:06.390Z,1.88
2018-01-04T17:33:34.129Z,1.89
2018-01-04T17:36:02.017Z,1.90
2018-01-04T17:38:29.810Z,1.83
2018-01-04T17:40:57.545Z,1.90
2018-01-04T17:43:25.408Z,1.92
2018-01-04T17:45:53.210Z,1.84
2018-01-04T17:48:20.965Z,1.78
2018-01-04T17:50:48.752Z,1.79
2018-01-04T17:53:16.469Z,1.81
2018-01-04T17:55:44.311Z,1.85
2018-01-04T17:58:12.069Z,1.85
2018-01-04T18:00:40.251Z,1.85
2018-01-04T18:03:07.976Z,1.85
2018-01-04T18:05:35.822Z,1.84
2018-01-04T18:08:04.874Z,1.83
2018-01-04T18:10:32.630Z,1.80
2018-01-04T18:13:01.501Z,1.79
2018-01-04T18:15:29.271Z,1.75
2018-01-04T18:17:57.069Z,1.80
2018-01-04T18:20:24.805Z,1.82
2018-01-04T18:22:52.592Z,1.83
2018-01-04T18:25:20.314Z,1.80
2018-01-04T18:27:48.124Z,1.74
2018-01-04T18:30:15.881Z,1.78
2018-01-04T18:32:43.887Z,1.70
2018-01-04T18:35:11.693Z,1.65
2018-01-04T18:37:39.483Z,1.63
2018-01-04T18:40:07.257Z,1.60
2018-01-04T18:42:35.091Z,1.66
2018-01-04T18:45:02.941Z,1.70
2018-01-04T18:47:30.680Z,1.79
2018-01-04T18:49:58.567Z,1.80
2018-01-04T18:52:26.456Z,1.81
2018-01-04T18:54:54.254Z,1.82
2018-01-04T18:57:22.049Z,1.85
2018-01-04T18:59:49.895Z,1.89
2018-01-04T19:02:17.646Z,1.85
2018-01-04T19:04:45.394Z,1.79
2018-01-04T19:07:13.228Z,1.80
2018-01-04T19:09:41.149Z,1.88
2018-01-04T19:12:09.173Z,1.86
2018-01-04T19:14:36.951Z,1.69
2018-01-04T19:17:04.726Z,1.57
2018-01-04T19:19:32.510Z,1.61
2018-01-04T19:22:00.284Z,1.71
2018-01-04T19:24:28.079Z,1.74
2018-01-04T19:26:55.905Z,1.76
2018-01-04T19:29:23.837Z,1.83
2018-01-04T19:31:51.686Z,1.80
2018-01-04T19:34:19.416Z,1.77
2018-01-04T19:36:47.231Z,1.81
2018-01-04T19:39:16.534Z,1.80
2018-01-04T19:41:44.205Z,1.79
2018-01-04T19:44:12.040Z,1.84
2018-01-04T19:46:41.104Z,1.84
2018-01-04T19:49:09.158Z,1.87
2018-01-04T19:51:37.321Z,1.77
2018-01-04T19:54:05.253Z,1.68
2018-01-04T19:56:33.103Z,1.76
2018-01-04T19:59:01.037Z,1.75
2018-01-04T20:01:30.167Z,1.81
2018-01-04T20:03:59.589Z,1.77
2018-01-04T20:06:27.788Z,1.79
2018-01-04T20:08:56.205Z,1.81
2018-01-04T20:11:27.012Z,1.84
2018-01-04T20:13:54.823Z,1.84
2018-01-04T20:16:23.023Z,1.74
2018-01-04T20:18:50.936Z,1.65
2018-01-04T20:21:18.759Z,1.74
2018-01-04T20:23:46.751Z,1.57
2018-01-04T20:26:14.649Z,1.58
2018-01-04T20:28:42.483Z,1.70
2018-01-04T20:31:10.398Z,1.64
2018-01-04T20:33:39.882Z,1.71
2018-01-04T20:36:07.967Z,1.70
2018-01-04T20:38:35.678Z,1.80
2018-01-04T20:41:03.597Z,1.80
2018-01-04T20:43:31.409Z,1.83
2018-01-04T20:45:59.192Z,1.83
2018-01-04T20:48:27.076Z,1.65
2018-01-04T20:50:55.161Z,1.67
2018-01-04T20:53:23.944Z,1.76
2018-01-04T20:55:51.805Z,1.67
2018-01-04T20:58:20.186Z,1.66
2018-01-04T21:00:48.154Z,1.73
2018-01-04T21:03:16.201Z,1.72
2018-01-04T21:05:44.209Z,1.72
2018-01-04T21:08:12.019Z,1.70
2018-01-04T21:10:39.824Z,1.73
2018-01-04T21:13:07.861Z,1.58
2018-01-04T21:15:35.639Z,1.65
2018-01-04T21:18:04.306Z,1.68
2018-01-04T21:20:32.179Z,1.73
2018-01-04T21:23:01.559Z,1.80
2018-01-04T21:25:29.264Z,1.90
2018-01-04T21:27:57.172Z,1.83
2018-01-04T21:30:24.953Z,1.80
2018-01-04T21:32:52.775Z,1.75
2018-01-04T21:35:20.647Z,1.79
2018-01-04T21:37:48.457Z,1.75
2018-01-04T21:40:16.154Z,1.74
2018-01-04T21:42:43.936Z,1.79
2018-01-04T21:45:11.647Z,1.75
2018-01-04T21:47:39.358Z,1.74
2018-01-04T21:50:07.316Z,1.72
2018-01-04T21:52:35.459Z,1.66
2018-01-04T21:55:03.275Z,1.67
2018-01-04T21:57:31.038Z,1.77
2018-01-04T21:59:58.912Z,1.83
2018-01-04T22:02:27.585Z,1.85
2018-01-04T22:04:55.341Z,1.76
2018-01-04T22:07:23.205Z,1.83
2018-01-04T22:09:50.948Z,1.84
2018-01-04T22:12:18.760Z,1.78
2018-01-04T22:14:46.557Z,1.81
2018-01-04T22:17:15.167Z,1.82
2018-01-04T22:19:42.882Z,1.84
2018-01-04T22:22:10.670Z,1.89
2018-01-04T22:24:38.688Z,1.93
2018-01-04T22:27:06.376Z,1.89
2018-01-04T22:29:35.737Z,1.78
2018-01-04T22:32:03.787Z,1.78
2018-01-04T22:34:31.505Z,1.81
2018-01-04T22:36:59.384Z,1.84
2018-01-04T22:39:27.191Z,1.73
2018-01-04T22:41:54.937Z,1.63
2018-01-04T22:44:22.686Z,1.71
2018-01-04T22:46:50.466Z,1.73
2018-01-04T22:49:18.189Z,1.64
2018-01-04T22:51:45.954Z,1.68
2018-01-04T22:54:13.758Z,1.74
2018-01-04T22:56:41.456Z,1.81
2018-01-04T22:59:09.149Z,1.82
2018-01-04T23:01:36.925Z,1.84
2018-01-04T23:04:04.750Z,1.79
2018-01-04T23:06:33.579Z,1.79
2018-01-04T23:09:02.058Z,1.80
2018-01-04T23:11:29.814Z,1.74
2018-01-04T23:13:57.552Z,1.77
2018-01-04T23:16:25.260Z,1.87
2018-01-04T23:18:53.027Z,1.88
2018-01-04T23:21:20.790Z,1.77
2018-01-04T23:23:48.566Z,1.82
2018-01-04T23:26:16.317Z,1.82
2018-01-04T23:28:44.005Z,1.83
2018-01-04T23:31:11.774Z,1.82
2018-01-04T23:33:39.541Z,1.89
2018-01-04T23:36:07.220Z,1.93
2018-01-04T23:38:35.013Z,1.87
2018-01-04T23:41:02.717Z,1.91
2018-01-04T23:43:30.426Z,1.89
2018-01-04T23:45:58.300Z,1.92
2018-01-04T23:48:26.012Z,1.93
2018-01-04T23:50:53.747Z,1.98
2018-01-04T23:53:21.571Z,1.90
2018-01-04T23:55:49.347Z,1.92
2018-01-04T23:58:17.107Z,1.92
